39°F Temp
23°F Dewpoint
52% Humidity
Temperature
9 MPH
14 KM/H
8 KTS
270°
Due West

Wind Speed
Mostly Cloudy
Conditions
Pressure 1026.72 (hPa) - 30.32 (in)
Visibility 9.9 (mi) - 16.0 (km)

Current Conditions
KORD
Location 30(mi)
Metar :KORD 252151Z 27008KT 10SM BKN250 04/M05 A3032 RMK AO2 SLP273 T00391050
Thu 25th February 16:51 pm

Airport
  Metar Aviation API Data Provided by https://www.checkwx.com/ PHP scripts by weather34.com ©2021